createdAt,value
2023-04-26T00:00:00.118Z,998.54
2023-04-26T00:05:00.278Z,998.5
2023-04-26T00:10:00.127Z,998.53
2023-04-26T00:15:00.116Z,998.64
2023-04-26T00:20:00.196Z,998.56
2023-04-26T00:25:00.142Z,998.55
2023-04-26T00:30:00.144Z,998.56
2023-04-26T00:35:00.178Z,998.52
2023-04-26T00:40:00.119Z,998.51
2023-04-26T00:45:00.119Z,998.57
2023-04-26T00:50:00.160Z,998.65
2023-04-26T00:55:00.165Z,998.64
2023-04-26T01:00:00.173Z,998.66
2023-04-26T01:05:00.159Z,998.74
2023-04-26T01:10:00.206Z,998.77
2023-04-26T01:15:00.119Z,998.79
2023-04-26T01:20:00.180Z,998.9
2023-04-26T01:25:00.119Z,998.85
2023-04-26T01:30:00.189Z,998.92
2023-04-26T01:35:00.120Z,998.88
2023-04-26T01:40:00.156Z,998.91
2023-04-26T01:45:00.108Z,998.9
2023-04-26T01:50:00.116Z,998.87
2023-04-26T01:55:00.105Z,998.89
2023-04-26T02:00:00.141Z,998.9
2023-04-26T02:05:00.213Z,998.82
2023-04-26T02:10:00.178Z,998.87
2023-04-26T02:15:00.113Z,998.88
2023-04-26T02:20:00.137Z,998.87
2023-04-26T02:25:00.123Z,998.92
2023-04-26T02:30:00.151Z,998.97
2023-04-26T02:35:00.121Z,998.91
2023-04-26T02:40:00.144Z,998.84
2023-04-26T02:45:00.120Z,998.96
2023-04-26T02:50:00.183Z,998.87
2023-04-26T02:55:00.133Z,998.88
2023-04-26T03:00:00.169Z,998.9
2023-04-26T03:05:00.103Z,998.83
2023-04-26T03:10:00.199Z,998.89
2023-04-26T03:15:00.128Z,998.9
2023-04-26T03:20:02.456Z,998.92
2023-04-26T03:25:00.146Z,998.95
2023-04-26T03:30:00.177Z,998.47
2023-04-26T03:35:00.125Z,998.5
2023-04-26T03:40:00.156Z,998.46
2023-04-26T03:45:00.126Z,998.43
2023-04-26T03:50:00.189Z,998.47
2023-04-26T03:55:00.156Z,998.45
2023-04-26T04:00:00.132Z,998.53
2023-04-26T04:05:00.319Z,998.56
2023-04-26T04:10:00.148Z,998.44
2023-04-26T04:15:00.092Z,998.59
2023-04-26T04:20:00.120Z,998.58
2023-04-26T04:25:00.122Z,998.58
2023-04-26T04:30:00.206Z,998.58
2023-04-26T04:35:00.139Z,998.64
2023-04-26T04:40:00.183Z,998.65
2023-04-26T04:45:00.098Z,998.73
2023-04-26T04:50:00.222Z,998.87
2023-04-26T04:55:00.101Z,998.84
2023-04-26T05:00:00.126Z,998.91
2023-04-26T05:05:00.121Z,998.97
2023-04-26T05:10:00.206Z,999.03
2023-04-26T05:15:00.129Z,999.04
2023-04-26T05:20:00.109Z,999.04
2023-04-26T05:25:00.111Z,999.07
2023-04-26T05:30:00.166Z,999.11
2023-04-26T05:35:00.104Z,999.05
2023-04-26T05:40:00.145Z,999.15
2023-04-26T05:45:00.148Z,999.18
2023-04-26T05:50:00.196Z,999.12
2023-04-26T05:55:00.126Z,999.17
2023-04-26T06:00:00.138Z,999.26
2023-04-26T06:05:00.282Z,999.21
2023-04-26T06:10:00.181Z,999.36
2023-04-26T06:15:00.145Z,999.37
2023-04-26T06:20:00.173Z,999.45
2023-04-26T06:25:00.145Z,999.41
2023-04-26T06:30:00.233Z,999.44
2023-04-26T06:35:00.113Z,999.46
2023-04-26T06:40:00.143Z,999.39
2023-04-26T06:45:00.141Z,999.45
2023-04-26T06:50:00.381Z,999.42
2023-04-26T06:55:00.115Z,999.45
2023-04-26T07:00:00.158Z,999.5
2023-04-26T07:05:00.174Z,999.44
2023-04-26T07:10:00.250Z,999.52
2023-04-26T07:15:00.124Z,999.55
2023-04-26T07:20:00.159Z,999.46
2023-04-26T07:25:00.132Z,999.54
2023-04-26T07:30:00.184Z,999.44
2023-04-26T07:35:00.140Z,999.49
2023-04-26T07:40:00.121Z,999.41
2023-04-26T07:45:00.112Z,999.44
2023-04-26T07:50:00.210Z,999.55
2023-04-26T07:55:00.132Z,999.49
2023-04-26T08:00:00.175Z,999.56
2023-04-26T08:05:00.158Z,999.59
2023-04-26T08:10:00.164Z,999.64
2023-04-26T08:15:00.136Z,999.65
2023-04-26T08:20:00.126Z,999.66
2023-04-26T08:25:00.132Z,999.76
2023-04-26T08:30:00.242Z,999.57
2023-04-26T08:35:00.123Z,999.67
2023-04-26T08:40:00.299Z,999.65
2023-04-26T08:45:00.148Z,999.68
2023-04-26T08:50:00.223Z,999.6
2023-04-26T08:55:00.120Z,999.58
2023-04-26T09:00:00.149Z,999.71
2023-04-26T09:05:00.331Z,999.66
2023-04-26T09:10:00.219Z,999.61
2023-04-26T09:15:00.164Z,999.67
2023-04-26T09:20:00.185Z,999.7
2023-04-26T09:25:00.124Z,999.67
2023-04-26T09:30:00.339Z,999.67
2023-04-26T09:35:00.125Z,999.64
2023-04-26T09:40:00.117Z,999.63
2023-04-26T09:45:00.153Z,999.7
2023-04-26T09:50:00.139Z,999.68
2023-04-26T10:00:00.176Z,999.66
2023-04-26T10:05:00.408Z,999.72
2023-04-26T10:10:00.178Z,999.77
2023-04-26T10:15:00.167Z,999.81
2023-04-26T10:20:00.190Z,1000.32
2023-04-26T10:25:00.132Z,999.82
2023-04-26T10:30:00.220Z,999.74
2023-04-26T10:35:00.155Z,999.76
2023-04-26T10:40:00.137Z,999.8
2023-04-26T10:45:00.109Z,999.81
2023-04-26T10:50:00.166Z,999.75
2023-04-26T10:55:00.153Z,999.75
2023-04-26T11:00:00.174Z,999.68
2023-04-26T11:05:00.213Z,999.8
2023-04-26T11:10:00.194Z,999.72
2023-04-26T11:15:00.130Z,999.76
2023-04-26T11:20:00.150Z,999.7
2023-04-26T11:25:00.167Z,999.68
2023-04-26T11:30:00.177Z,999.7
2023-04-26T11:35:00.106Z,999.68
2023-04-26T11:40:00.150Z,999.51
2023-04-26T11:45:00.201Z,999.49
2023-04-26T11:50:00.176Z,999.62
2023-04-26T11:55:00.144Z,999.67
2023-04-26T12:00:00.179Z,999.67
2023-04-26T12:05:00.283Z,999.68
2023-04-26T12:10:00.991Z,999.71
2023-04-26T12:15:00.158Z,999.67
2023-04-26T12:20:00.147Z,999.59
2023-04-26T12:25:00.116Z,999.59
2023-04-26T12:30:00.211Z,999.66
2023-04-26T12:35:00.156Z,999.63
2023-04-26T12:40:00.152Z,999.64
2023-04-26T12:45:00.209Z,999.64
2023-04-26T12:50:00.224Z,999.53
2023-04-26T12:55:00.122Z,999.57
2023-04-26T13:00:00.126Z,999.61
2023-04-26T13:05:00.303Z,999.54
2023-04-26T13:10:00.258Z,999.66
2023-04-26T13:15:00.238Z,999.57
2023-04-26T13:20:00.223Z,999.57
2023-04-26T13:25:00.163Z,999.61
2023-04-26T13:30:00.218Z,999.62
2023-04-26T13:35:00.200Z,999.61
2023-04-26T13:40:00.164Z,999.66
2023-04-26T13:45:00.142Z,999.66
2023-04-26T13:50:00.158Z,999.65
2023-04-26T13:55:00.103Z,999.72
2023-04-26T14:00:00.125Z,999.71
2023-04-26T14:05:00.347Z,999.71
2023-04-26T14:10:00.210Z,999.84
2023-04-26T14:15:00.177Z,999.89
2023-04-26T14:20:00.116Z,999.93
2023-04-26T14:25:00.112Z,999.85
2023-04-26T14:30:00.189Z,999.83
2023-04-26T14:35:00.115Z,999.77
2023-04-26T14:40:00.114Z,999.76
2023-04-26T14:45:00.122Z,999.76
2023-04-26T14:50:00.122Z,999.8
2023-04-26T14:55:00.131Z,999.87
2023-04-26T15:00:00.175Z,999.92
2023-04-26T15:05:00.177Z,999.93
2023-04-26T15:10:00.146Z,999.95
2023-04-26T15:15:00.167Z,999.97
2023-04-26T15:20:00.162Z,999.93
2023-04-26T15:25:00.185Z,999.95
2023-04-26T15:30:00.256Z,999.95
2023-04-26T15:35:00.113Z,1000.07
2023-04-26T15:40:00.163Z,999.95
2023-04-26T15:45:00.273Z,1000.03
2023-04-26T15:50:00.235Z,999.93
2023-04-26T15:55:00.266Z,1000.13
2023-04-26T16:00:00.179Z,1000.53
2023-04-26T16:05:00.318Z,1000.04
2023-04-26T16:10:00.233Z,1000.05
2023-04-26T16:15:00.184Z,1000.05
2023-04-26T16:20:00.196Z,1000.04
2023-04-26T16:25:00.124Z,999.98
2023-04-26T16:30:00.177Z,1000.05
2023-04-26T16:35:00.211Z,1000.02
2023-04-26T16:40:00.297Z,1000.06
2023-04-26T16:45:00.161Z,1000.05
2023-04-26T16:50:00.408Z,1000.03
2023-04-26T16:55:00.189Z,1000.07
2023-04-26T17:00:00.192Z,1000.05
2023-04-26T17:05:00.426Z,1000.17
2023-04-26T17:10:00.171Z,1000.17
2023-04-26T17:15:01.755Z,1000.1
2023-04-26T17:20:00.133Z,1000.13
2023-04-26T17:25:00.163Z,1000.18
2023-04-26T17:30:00.219Z,1000.25
2023-04-26T17:35:00.114Z,1000.25
2023-04-26T17:40:00.168Z,1000.21
2023-04-26T17:45:00.157Z,1000.26
2023-04-26T17:50:00.157Z,1000.25
2023-04-26T17:55:00.136Z,1000.26
2023-04-26T18:00:00.196Z,1000.26
2023-04-26T18:05:00.295Z,1000.33
2023-04-26T18:10:00.170Z,1000.28
2023-04-26T18:15:00.193Z,1000.39
2023-04-26T18:20:00.194Z,1000.44
2023-04-26T18:25:00.154Z,1000.47
2023-04-26T18:30:00.204Z,1000.51
2023-04-26T18:35:00.136Z,1000.34
2023-04-26T18:40:00.197Z,1000.44
2023-04-26T18:45:00.231Z,1000.46
2023-04-26T18:50:00.204Z,1000.48
2023-04-26T18:55:00.122Z,1000.53
2023-04-26T19:00:00.163Z,1000.5
2023-04-26T19:05:00.223Z,1000.57
2023-04-26T19:10:00.625Z,1000.64
2023-04-26T19:15:00.186Z,1000.68
2023-04-26T19:20:00.137Z,1000.73
2023-04-26T19:25:00.138Z,1000.77
2023-04-26T19:30:00.240Z,1000.83
2023-04-26T19:35:00.151Z,1000.86
2023-04-26T19:40:00.197Z,1000.82
2023-04-26T19:45:00.187Z,1000.85
2023-04-26T19:50:00.274Z,1000.92
2023-04-26T19:55:00.188Z,1000.84
2023-04-26T20:00:00.159Z,1000.91
2023-04-26T20:05:00.144Z,1000.94
2023-04-26T20:10:00.181Z,1000.99
2023-04-26T20:15:00.174Z,1001.02
2023-04-26T20:20:00.162Z,1001.01
2023-04-26T20:25:00.147Z,1000.99
2023-04-26T20:30:00.287Z,1001.46
2023-04-26T20:35:00.139Z,1001.44
2023-04-26T20:40:00.169Z,1001.39
2023-04-26T20:45:01.989Z,1001.46
2023-04-26T20:50:00.201Z,1001.39
2023-04-26T20:55:00.140Z,1001.41
2023-04-26T21:00:00.213Z,1001.39
2023-04-26T21:05:00.206Z,1001.38
2023-04-26T21:10:00.162Z,1001.39
2023-04-26T21:15:00.168Z,1001.5
2023-04-26T21:20:00.141Z,1001.5
2023-04-26T21:25:00.165Z,1001.58
2023-04-26T21:30:00.217Z,1001.5
2023-04-26T21:35:00.114Z,1001.52
2023-04-26T21:40:00.188Z,1001.56
2023-04-26T21:45:00.182Z,1001.56
2023-04-26T21:50:00.208Z,1001.53
2023-04-26T21:55:00.132Z,1001.62
2023-04-26T22:00:00.256Z,1001.61
2023-04-26T22:05:00.171Z,1001.64
2023-04-26T22:10:00.160Z,1001.65
2023-04-26T22:15:00.157Z,1001.73
2023-04-26T22:20:00.132Z,1001.7
2023-04-26T22:25:00.169Z,1001.74
2023-04-26T22:30:04.185Z,1001.8
2023-04-26T22:35:00.148Z,1001.79
2023-04-26T22:40:00.339Z,1001.79
2023-04-26T22:45:00.153Z,1001.84
2023-04-26T22:50:00.171Z,1001.78
2023-04-26T22:55:00.196Z,1001.9
2023-04-26T23:00:00.149Z,1001.84
2023-04-26T23:05:00.411Z,1001.78
2023-04-26T23:10:00.234Z,1001.84
2023-04-26T23:15:00.149Z,1001.8
2023-04-26T23:20:00.225Z,1001.84
2023-04-26T23:25:00.211Z,1001.79
2023-04-26T23:30:00.210Z,1001.89
2023-04-26T23:35:00.142Z,1001.96
2023-04-26T23:40:00.214Z,1001.99
2023-04-26T23:45:00.141Z,1001.96
2023-04-26T23:50:00.188Z,1001.99
2023-04-26T23:55:00.127Z,1001.96
